Time;durP1;ratioP1;P1;durP2;ratioP2;P2;SDS_P1;SDS_P2;PMS_P1;PMS_P2;Temp;Humidity;BMP_temperature;BMP_pressure;BME280_temperature;BME280_humidity;BME280_pressure;Samples;Min_cycle;Max_cycle;Signal;HPM_P1;HPM_P2
2021/10/06 00:02:11;;;;;;;4.03;3.63;;;;;;;13.18;72.51;99573.84;5062069;28;20511;-68
2021/10/06 00:04:37;;;;;;;8.40;3.60;;;;;;;13.08;72.93;99585.81;5062455;28;20500;-68
2021/10/06 00:07:04;;;;;;;4.40;3.60;;;;;;;13.14;72.39;99572.53;5075876;28;20502;-68
2021/10/06 00:09:32;;;;;;;13.50;3.73;;;;;;;12.92;73.27;99589.38;5080464;28;21093;-68
2021/10/06 00:11:59;;;;;;;7.63;4.10;;;;;;;13.15;72.99;99592.97;5078341;28;20499;-68
2021/10/06 00:14:26;;;;;;;4.30;3.20;;;;;;;12.91;73.36;99590.38;5075146;28;20504;-68
2021/10/06 00:16:53;;;;;;;6.00;3.87;;;;;;;12.79;73.50;99589.91;5064660;28;20485;-68
2021/10/06 00:19:20;;;;;;;10.97;4.07;;;;;;;13.04;72.78;99593.38;5062175;28;20529;-68
2021/10/06 00:21:46;;;;;;;4.93;3.00;;;;;;;13.12;72.81;99597.84;5061436;28;20563;-68
2021/10/06 00:24:13;;;;;;;7.23;3.20;;;;;;;13.15;72.74;99598.34;5064600;28;20520;-68
2021/10/06 00:26:41;;;;;;;8.00;3.30;;;;;;;13.14;72.65;99591.31;5071598;28;20617;-68
2021/10/06 00:29:08;;;;;;;4.30;3.40;;;;;;;13.03;72.60;99607.78;5065256;28;20521;-68
2021/10/06 00:31:35;;;;;;;9.20;4.37;;;;;;;12.91;73.13;99609.16;5072306;28;20486;-68
2021/10/06 00:34:01;;;;;;;6.40;3.20;;;;;;;13.00;72.78;99610.81;5081983;28;20485;-69
2021/10/06 00:36:28;;;;;;;5.60;3.30;;;;;;;13.08;72.34;99613.47;5080915;28;20480;-68
2021/10/06 00:38:55;;;;;;;6.60;2.80;;;;;;;13.08;71.94;99610.78;5079526;28;20483;-68
2021/10/06 00:41:21;;;;;;;4.53;3.37;;;;;;;12.96;73.09;99618.38;5080333;28;20484;-68
2021/10/06 00:43:49;;;;;;;4.23;3.00;;;;;;;13.06;72.28;99620.88;5072541;28;20490;-68
2021/10/06 00:46:16;;;;;;;6.63;2.60;;;;;;;12.98;72.30;99619.06;5079384;28;20548;-69
2021/10/06 00:48:42;;;;;;;6.67;3.27;;;;;;;13.08;72.24;99618.00;5068253;28;20507;-69
2021/10/06 00:51:09;;;;;;;6.57;3.60;;;;;;;13.24;72.14;99622.47;5066404;28;20511;-68
2021/10/06 00:53:36;;;;;;;8.30;3.30;;;;;;;12.79;73.14;99617.59;5081937;28;20512;-68
2021/10/06 00:56:02;;;;;;;4.10;2.50;;;;;;;12.98;72.18;99620.88;5064245;28;20507;-69
2021/10/06 00:58:29;;;;;;;6.23;2.63;;;;;;;13.04;72.01;99630.06;5081631;28;20464;-69
2021/10/06 01:00:57;;;;;;;6.27;3.57;;;;;;;12.92;72.12;99637.69;5075089;28;20650;-69
2021/10/06 01:03:24;;;;;;;6.40;3.40;;;;;;;13.03;71.89;99637.31;5081700;28;20991;-68
2021/10/06 01:05:52;;;;;;;3.67;3.00;;;;;;;12.92;72.63;99638.50;5068506;28;20594;-69
2021/10/06 01:08:19;;;;;;;5.07;3.60;;;;;;;13.00;72.14;99646.53;5080201;28;20472;-68
2021/10/06 01:10:46;;;;;;;4.63;3.80;;;;;;;13.15;71.50;99649.34;5077799;28;20538;-68
2021/10/06 01:13:15;;;;;;;5.20;4.10;;;;;;;12.82;72.60;99646.72;5061648;28;20497;-68
2021/10/06 01:15:43;;;;;;;6.20;4.30;;;;;;;12.82;72.45;99653.94;5063762;28;20476;-69
2021/10/06 01:18:11;;;;;;;8.70;4.57;;;;;;;13.22;71.58;99651.34;5061759;28;20545;-69
2021/10/06 01:20:38;;;;;;;9.80;4.30;;;;;;;13.08;72.12;99656.41;5060946;28;20493;-69
2021/10/06 01:23:06;;;;;;;5.17;3.87;;;;;;;13.02;72.31;99657.13;5061416;28;21008;-69
2021/10/06 01:25:32;;;;;;;6.67;3.90;;;;;;;13.28;71.59;99664.94;5073235;28;20500;-69
2021/10/06 01:27:59;;;;;;;6.23;4.30;;;;;;;12.95;72.58;99651.59;5080907;28;21000;-68
2021/10/06 01:30:26;;;;;;;7.60;4.17;;;;;;;12.92;72.73;99659.16;5079766;28;20979;-68
2021/10/06 01:32:53;;;;;;;7.70;4.90;;;;;;;12.90;72.99;99647.75;5062736;28;20451;-69
2021/10/06 01:35:19;;;;;;;6.53;5.00;;;;;;;12.89;73.51;99664.84;5062268;28;20477;-69
2021/10/06 01:37:46;;;;;;;10.57;5.60;;;;;;;12.85;73.65;99650.94;5061337;28;20480;-69
2021/10/06 01:40:16;;;;;;;8.87;5.43;;;;;;;12.92;73.30;99654.59;5062934;28;20978;-69
2021/10/06 01:42:44;;;;;;;7.07;5.33;;;;;;;13.11;72.79;99656.06;5077731;28;20511;-69
2021/10/06 01:45:17;;;;;;;6.10;5.30;;;;;;;13.09;72.84;99663.47;5066524;28;20515;-69
2021/10/06 01:47:43;;;;;;;5.87;4.80;;;;;;;13.16;72.88;99667.13;5079936;28;20448;-69
2021/10/06 01:50:11;;;;;;;10.13;7.00;;;;;;;12.98;73.16;99663.81;5077897;28;20471;-70
2021/10/06 01:52:37;;;;;;;13.93;6.30;;;;;;;12.90;73.61;99679.94;5074921;28;20527;-68
2021/10/06 01:55:05;;;;;;;10.47;6.93;;;;;;;13.02;72.88;99675.91;5082378;28;20459;-68
2021/10/06 01:57:33;;;;;;;7.10;6.17;;;;;;;12.91;73.27;99668.19;5071001;28;20727;-68
2021/10/06 02:00:00;;;;;;;6.50;5.90;;;;;;;12.72;73.45;99675.56;5067238;28;20858;-68
2021/10/06 02:02:26;;;;;;;7.80;6.13;;;;;;;12.90;73.02;99666.53;5063568;28;20924;-68
2021/10/06 02:04:53;;;;;;;6.30;5.70;;;;;;;12.75;73.63;99677.09;5067453;28;20544;-68
2021/10/06 02:07:19;;;;;;;8.00;6.50;;;;;;;12.98;72.81;99671.84;5063434;28;20479;-68
2021/10/06 02:09:46;;;;;;;8.27;5.73;;;;;;;12.72;73.47;99672.06;5075109;28;20475;-68
2021/10/06 02:12:13;;;;;;;10.00;5.87;;;;;;;12.92;72.53;99675.25;5078675;28;20484;-68
2021/10/06 02:14:41;;;;;;;5.93;4.27;;;;;;;12.70;73.04;99672.22;5073800;28;20871;-68
2021/10/06 02:17:07;;;;;;;9.40;6.23;;;;;;;12.76;73.19;99673.41;5082669;28;20510;-68
2021/10/06 02:19:34;;;;;;;9.00;5.60;;;;;;;12.65;73.50;99674.56;5075149;28;20440;-67
2021/10/06 02:22:00;;;;;;;11.53;6.33;;;;;;;12.49;73.70;99679.94;5066381;28;20563;-68
2021/10/06 02:24:27;;;;;;;8.70;5.97;;;;;;;12.57;73.82;99675.44;5080879;28;20504;-69
2021/10/06 02:26:54;;;;;;;9.87;7.70;;;;;;;12.31;74.21;99683.63;5070966;28;20527;-68
2021/10/06 02:29:20;;;;;;;6.70;5.90;;;;;;;12.33;74.32;99689.66;5073374;28;20494;-69
2021/10/06 02:31:48;;;;;;;7.97;6.53;;;;;;;12.48;73.52;99681.81;5077170;28;20569;-68
2021/10/06 02:34:15;;;;;;;8.10;6.10;;;;;;;12.68;73.06;99687.66;5073621;28;20436;-68
2021/10/06 02:36:42;;;;;;;9.13;6.77;;;;;;;12.55;73.09;99692.66;5083262;28;20542;-68
2021/10/06 02:39:08;;;;;;;7.60;5.83;;;;;;;12.53;73.68;99686.66;5081432;28;20479;-68
2021/10/06 02:41:35;;;;;;;8.17;6.30;;;;;;;12.52;73.49;99691.19;5081761;28;20514;-69
2021/10/06 02:44:02;;;;;;;8.00;5.97;;;;;;;12.58;73.32;99687.81;5076630;28;20512;-68
2021/10/06 02:46:29;;;;;;;8.03;5.60;;;;;;;12.56;73.56;99686.31;5062213;28;20540;-68
2021/10/06 02:48:57;;;;;;;7.23;6.40;;;;;;;12.68;72.76;99684.97;5063842;28;20480;-68
2021/10/06 02:51:23;;;;;;;9.60;5.60;;;;;;;12.78;72.37;99693.69;5070060;28;20559;-68
2021/10/06 02:53:50;;;;;;;8.93;6.50;;;;;;;12.58;73.03;99695.84;5081986;28;20551;-68
2021/10/06 02:56:17;;;;;;;7.23;5.63;;;;;;;12.49;73.12;99694.19;5064073;28;20476;-68
2021/10/06 02:58:44;;;;;;;9.20;6.37;;;;;;;12.60;72.78;99684.97;5079076;28;20495;-67
2021/10/06 03:01:11;;;;;;;7.93;5.50;;;;;;;12.61;72.85;99692.03;5073712;28;20508;-67
2021/10/06 03:03:37;;;;;;;6.80;6.10;;;;;;;12.51;73.06;99702.91;5063160;28;20525;-68
2021/10/06 03:06:05;;;;;;;6.50;5.63;;;;;;;12.30;73.69;99697.19;5062144;28;20595;-68
2021/10/06 03:08:32;;;;;;;12.90;6.23;;;;;;;12.66;72.92;99705.75;5063658;28;20513;-68
2021/10/06 03:10:59;;;;;;;7.57;5.70;;;;;;;12.56;72.64;99700.56;5076248;28;20945;-68
2021/10/06 03:13:26;;;;;;;7.63;5.33;;;;;;;12.20;73.38;99698.19;5083306;28;20456;-68
2021/10/06 03:15:54;;;;;;;7.53;5.40;;;;;;;12.41;72.84;99708.44;5071400;28;20508;-68
2021/10/06 03:18:21;;;;;;;14.10;6.03;;;;;;;12.18;73.61;99715.41;5063261;28;20536;-67
2021/10/06 03:20:47;;;;;;;6.63;5.67;;;;;;;12.35;72.95;99714.44;5081370;28;20506;-68
2021/10/06 03:23:16;;;;;;;7.00;5.40;;;;;;;12.30;73.36;99722.16;5081091;28;20504;-69
2021/10/06 03:25:42;;;;;;;8.53;5.80;;;;;;;12.32;72.87;99717.44;5070729;28;20510;-68
2021/10/06 03:28:09;;;;;;;8.90;6.10;;;;;;;12.32;72.68;99725.50;5082108;28;20515;-68
2021/10/06 03:30:36;;;;;;;7.43;5.63;;;;;;;12.46;72.13;99731.22;5070664;28;20562;-68
2021/10/06 03:33:02;;;;;;;9.67;6.30;;;;;;;12.34;72.64;99728.00;5070668;28;20484;-68
2021/10/06 03:35:29;;;;;;;11.93;5.27;;;;;;;12.29;72.84;99728.53;5081253;28;20495;-68
2021/10/06 03:37:55;;;;;;;10.03;6.10;;;;;;;12.57;71.74;99725.53;5072197;28;20471;-68
2021/10/06 03:40:23;;;;;;;8.23;4.97;;;;;;;12.35;72.01;99719.81;5067635;28;20448;-68
2021/10/06 03:42:50;;;;;;;5.90;4.03;;;;;;;12.31;72.38;99734.56;5070894;28;20531;-68
2021/10/06 03:45:18;;;;;;;6.93;4.80;;;;;;;12.13;72.72;99739.19;5061082;28;20544;-68
2021/10/06 03:47:45;;;;;;;9.80;5.90;;;;;;;12.24;71.98;99744.25;5070069;28;20523;-68
2021/10/06 03:50:13;;;;;;;7.80;5.00;;;;;;;12.36;71.63;99736.72;5067528;28;20524;-68
2021/10/06 03:52:40;;;;;;;6.47;4.47;;;;;;;12.36;71.96;99750.13;5071331;28;20472;-68
2021/10/06 03:55:08;;;;;;;7.13;4.90;;;;;;;12.15;72.20;99739.84;5081396;28;20463;-68
2021/10/06 03:57:36;;;;;;;8.27;5.10;;;;;;;12.38;71.80;99743.63;5082389;28;20484;-68
2021/10/06 04:00:04;;;;;;;9.73;4.40;;;;;;;12.48;71.36;99743.47;5075874;28;20498;-68
2021/10/06 04:02:30;;;;;;;5.57;5.00;;;;;;;12.52;70.71;99747.50;5061607;28;20907;-68
2021/10/06 04:04:57;;;;;;;9.10;4.83;;;;;;;12.65;70.52;99752.34;5068688;28;20504;-68
2021/10/06 04:07:24;;;;;;;7.23;5.20;;;;;;;12.37;70.56;99749.13;5080989;28;20578;-68
2021/10/06 04:09:50;;;;;;;6.00;4.00;;;;;;;12.68;69.67;99756.56;5080222;28;20464;-68
2021/10/06 04:12:17;;;;;;;10.23;5.63;;;;;;;12.53;70.31;99753.69;5080389;28;20531;-68
2021/10/06 04:14:45;;;;;;;7.23;4.60;;;;;;;12.40;70.03;99749.63;5082332;28;20448;-68
2021/10/06 04:17:11;;;;;;;9.30;5.20;;;;;;;12.80;69.02;99761.41;5073761;28;20566;-68
2021/10/06 04:19:38;;;;;;;7.73;4.80;;;;;;;12.66;69.33;99755.91;5073221;28;20472;-68
2021/10/06 04:22:05;;;;;;;11.13;4.90;;;;;;;12.43;69.93;99760.03;5082458;28;21196;-68
2021/10/06 04:24:31;;;;;;;8.40;4.60;;;;;;;12.47;69.60;99767.75;5081857;28;20463;-69
2021/10/06 04:26:58;;;;;;;9.63;4.93;;;;;;;12.74;69.00;99761.25;5072198;28;20540;-69
2021/10/06 04:29:24;;;;;;;7.33;4.47;;;;;;;12.73;68.63;99764.94;5061968;28;20453;-69
2021/10/06 04:31:52;;;;;;;5.90;4.27;;;;;;;12.85;68.48;99773.50;5061896;28;20507;-69
2021/10/06 04:34:19;;;;;;;6.30;4.97;;;;;;;12.61;68.84;99772.47;5062350;28;20882;-68
2021/10/06 04:36:46;;;;;;;9.07;4.90;;;;;;;12.88;68.27;99776.69;5061584;28;20928;-69
2021/10/06 04:39:13;;;;;;;6.80;4.90;;;;;;;12.73;68.48;99779.19;5061949;28;20437;-70
2021/10/06 04:41:40;;;;;;;6.87;4.13;;;;;;;12.89;68.10;99778.34;5061289;28;20587;-71
2021/10/06 04:44:07;;;;;;;6.00;4.97;;;;;;;12.79;67.87;99778.53;5062234;28;20464;-70
2021/10/06 04:46:34;;;;;;;5.63;4.10;;;;;;;12.77;68.49;99782.38;5066751;28;20556;-70
2021/10/06 04:49:02;;;;;;;5.50;4.00;;;;;;;12.74;68.63;99788.91;5081669;28;20493;-69
2021/10/06 04:51:29;;;;;;;12.70;4.00;;;;;;;12.92;67.44;99785.25;5081741;28;20476;-70
2021/10/06 04:53:56;;;;;;;4.47;3.63;;;;;;;12.49;68.63;99782.66;5078157;28;20468;-70
2021/10/06 04:56:22;;;;;;;6.60;3.40;;;;;;;12.69;68.09;99793.09;5075744;28;20533;-70
2021/10/06 04:58:49;;;;;;;5.30;3.70;;;;;;;12.66;67.36;99786.22;5062022;28;20480;-70
2021/10/06 05:01:15;;;;;;;6.53;3.80;;;;;;;12.75;67.66;99787.91;5060097;28;20567;-70
2021/10/06 05:03:42;;;;;;;7.23;4.07;;;;;;;12.65;67.50;99791.75;5065079;28;20461;-70
2021/10/06 05:06:10;;;;;;;6.40;3.57;;;;;;;12.67;67.44;99795.09;5060833;28;20535;-71
2021/10/06 05:08:37;;;;;;;5.33;3.00;;;;;;;12.60;67.82;99786.88;5077712;28;20460;-70
2021/10/06 05:11:04;;;;;;;10.43;4.07;;;;;;;12.56;67.50;99799.78;5041110;28;20533;-70
2021/10/06 05:13:31;;;;;;;5.33;3.63;;;;;;;12.67;68.08;99798.59;5048136;28;20468;-70
2021/10/06 05:15:57;;;;;;;6.73;3.43;;;;;;;13.01;67.98;99786.91;5060486;28;20480;-71
2021/10/06 05:18:24;;;;;;;9.93;4.00;;;;;;;12.65;68.79;99789.06;5061589;28;20532;-71
2021/10/06 05:20:51;;;;;;;7.17;3.83;;;;;;;12.59;67.43;99795.94;5080064;28;20511;-70
2021/10/06 05:23:19;;;;;;;11.07;3.47;;;;;;;12.48;67.76;99806.97;5079543;28;20456;-70
2021/10/06 05:25:45;;;;;;;4.07;3.33;;;;;;;12.58;67.07;99804.97;5060642;28;20501;-71
2021/10/06 05:28:12;;;;;;;5.50;3.30;;;;;;;12.82;66.89;99812.22;5064159;28;20507;-70
2021/10/06 05:30:38;;;;;;;8.80;3.20;;;;;;;12.73;67.08;99805.19;5075413;28;20539;-70
2021/10/06 05:33:05;;;;;;;5.03;2.67;;;;;;;12.95;66.74;99817.09;5081188;28;20451;-75
2021/10/06 05:35:32;;;;;;;3.53;2.63;;;;;;;13.00;66.69;99815.59;5066105;28;20536;-75
2021/10/06 05:37:58;;;;;;;8.63;3.30;;;;;;;12.87;66.01;99819.78;5064619;28;20491;-70
2021/10/06 05:40:27;;;;;;;4.60;3.70;;;;;;;12.83;66.99;99808.56;5082998;28;20563;-70
2021/10/06 05:42:53;;;;;;;7.57;3.10;;;;;;;12.60;66.99;99811.00;5069952;28;20508;-69
2021/10/06 05:45:20;;;;;;;10.93;2.93;;;;;;;12.68;66.90;99808.34;5070476;28;20529;-71
2021/10/06 05:47:47;;;;;;;7.53;2.77;;;;;;;12.68;66.74;99816.41;5075657;28;20460;-71
2021/10/06 05:50:13;;;;;;;5.67;3.00;;;;;;;12.48;67.10;99817.69;5076759;28;20471;-71
2021/10/06 05:52:40;;;;;;;6.70;3.13;;;;;;;12.42;67.23;99819.19;5084173;28;20436;-71
2021/10/06 05:55:07;;;;;;;3.40;2.37;;;;;;;12.45;67.10;99813.50;5071142;28;20440;-70
2021/10/06 05:57:35;;;;;;;4.13;2.17;;;;;;;12.74;67.06;99821.09;5063485;28;20516;-71
2021/10/06 06:00:02;;;;;;;7.63;2.17;;;;;;;12.59;66.86;99825.44;5064905;28;20480;-70
2021/10/06 06:02:28;;;;;;;5.67;2.80;;;;;;;12.77;66.22;99828.81;5063530;28;20521;-71
2021/10/06 06:04:55;;;;;;;7.80;2.47;;;;;;;12.57;67.27;99825.59;5064425;28;20489;-70
2021/10/06 06:07:22;;;;;;;5.70;2.43;;;;;;;12.37;67.44;99832.22;5063773;28;20519;-69
2021/10/06 06:09:48;;;;;;;5.47;2.07;;;;;;;12.46;66.81;99838.47;5064860;28;20457;-70
2021/10/06 06:12:15;;;;;;;6.97;3.60;;;;;;;12.53;66.82;99836.81;5062411;28;20497;-70
2021/10/06 06:14:43;;;;;;;6.00;2.30;;;;;;;12.71;66.22;99837.53;5064359;28;20500;-71
2021/10/06 06:17:10;;;;;;;3.60;2.27;;;;;;;12.60;66.64;99836.00;5063245;28;20512;-70
2021/10/06 06:19:37;;;;;;;2.33;2.10;;;;;;;12.43;66.83;99831.59;5064489;28;20484;-70
2021/10/06 06:22:04;;;;;;;5.53;2.20;;;;;;;12.54;66.75;99857.25;5062932;28;20512;-70
2021/10/06 06:24:30;;;;;;;4.63;2.03;;;;;;;12.58;66.65;99854.06;5064517;28;20477;-71
2021/10/06 06:26:58;;;;;;;6.87;2.70;;;;;;;12.50;66.67;99842.47;5063735;28;20504;-71
2021/10/06 06:29:25;;;;;;;4.00;2.00;;;;;;;12.53;66.50;99858.25;5063279;28;20457;-70
2021/10/06 06:31:53;;;;;;;5.00;2.50;;;;;;;12.70;66.17;99862.66;5062907;28;20512;-71
2021/10/06 06:34:19;;;;;;;5.33;2.20;;;;;;;12.70;66.37;99873.38;5064264;28;20480;-71
2021/10/06 06:36:46;;;;;;;4.63;1.83;;;;;;;12.70;66.31;99873.38;5062676;28;20487;-71
2021/10/06 06:39:13;;;;;;;5.77;2.10;;;;;;;12.80;66.19;99865.22;5062949;28;20512;-71
2021/10/06 06:41:39;;;;;;;4.43;2.03;;;;;;;12.63;66.81;99875.06;5062634;28;20523;-70
2021/10/06 06:44:06;;;;;;;4.13;2.27;;;;;;;12.96;66.14;99870.59;5066631;28;20490;-71
2021/10/06 06:46:32;;;;;;;5.53;2.47;;;;;;;12.96;65.67;99873.28;5082781;28;20500;-71
2021/10/06 06:49:00;;;;;;;4.83;2.40;;;;;;;12.96;66.02;99867.06;5083632;28;20463;-70
2021/10/06 06:51:27;;;;;;;5.70;2.40;;;;;;;12.65;66.34;99870.34;5082082;28;20593;-70
2021/10/06 06:53:55;;;;;;;6.43;2.27;;;;;;;12.90;65.81;99867.75;5080850;28;20929;-71
2021/10/06 06:56:22;;;;;;;3.10;1.70;;;;;;;13.24;64.83;99870.28;5062888;28;20469;-70
2021/10/06 06:58:50;;;;;;;4.50;1.87;;;;;;;13.15;64.96;99877.50;5062705;28;20477;-70
2021/10/06 07:01:16;;;;;;;2.40;1.77;;;;;;;12.97;64.77;99869.59;5062117;28;20476;-71
2021/10/06 07:03:43;;;;;;;10.30;2.10;;;;;;;13.12;64.69;99876.97;5062847;28;20919;-71
2021/10/06 07:06:11;;;;;;;6.23;1.90;;;;;;;13.26;64.64;99878.16;5061555;28;20560;-70
2021/10/06 07:08:38;;;;;;;4.43;2.17;;;;;;;13.49;63.73;99876.53;5062579;28;21014;-71
2021/10/06 07:11:05;;;;;;;4.20;1.60;;;;;;;13.14;63.70;99880.34;5062354;28;21027;-70
2021/10/06 07:13:32;;;;;;;4.43;1.83;;;;;;;13.24;63.69;99880.19;5062289;28;20459;-71
2021/10/06 07:15:59;;;;;;;3.60;1.80;;;;;;;13.30;64.35;99884.91;5062273;28;20575;-71
2021/10/06 07:18:26;;;;;;;3.47;1.50;;;;;;;13.35;64.14;99880.72;5062853;28;21073;-71
2021/10/06 07:20:52;;;;;;;4.30;1.80;;;;;;;13.39;63.58;99883.09;5061289;28;20542;-71
2021/10/06 07:23:22;;;;;;;3.87;1.77;;;;;;;13.36;63.95;99890.44;5063026;28;20994;-70
2021/10/06 07:25:49;;;;;;;3.07;1.60;;;;;;;13.32;64.25;99890.97;5062343;28;20571;-71
2021/10/06 07:28:15;;;;;;;3.77;1.20;;;;;;;13.36;64.14;99897.66;5061451;28;20481;-70
2021/10/06 07:30:42;;;;;;;4.30;1.80;;;;;;;13.20;64.31;99893.09;5062138;28;20572;-70
2021/10/06 07:33:09;;;;;;;3.03;1.50;;;;;;;13.00;64.62;99896.09;5063284;28;20433;-71
2021/10/06 07:35:36;;;;;;;7.80;1.83;;;;;;;13.23;64.44;99898.16;5061723;28;20468;-71
2021/10/06 07:38:02;;;;;;;7.50;1.70;;;;;;;13.19;64.08;99907.53;5062785;28;20477;-71
2021/10/06 07:40:30;;;;;;;4.60;1.33;;;;;;;13.34;63.39;99897.00;5062973;28;20488;-70
2021/10/06 07:42:57;;;;;;;4.60;1.60;;;;;;;13.48;64.03;99901.69;5061877;28;20980;-71
2021/10/06 07:45:24;;;;;;;7.23;1.40;;;;;;;13.26;64.77;99908.56;5074144;28;20487;-69
2021/10/06 07:47:50;;;;;;;5.60;1.53;;;;;;;12.97;65.16;99915.22;5082433;28;20436;-71
2021/10/06 07:50:17;;;;;;;2.73;1.30;;;;;;;13.41;63.60;99911.44;5080533;28;20459;-71
2021/10/06 07:52:44;;;;;;;8.20;1.67;;;;;;;13.40;64.18;99907.06;5083065;28;20449;-71
2021/10/06 07:55:11;;;;;;;4.30;1.70;;;;;;;13.16;63.76;99914.06;5070150;28;20472;-71
2021/10/06 07:57:39;;;;;;;3.17;1.83;;;;;;;13.37;63.27;99912.78;5061583;28;20460;-71
2021/10/06 08:00:07;;;;;;;5.30;1.33;;;;;;;13.55;63.08;99929.56;5061005;28;20461;-70
2021/10/06 08:02:34;;;;;;;4.90;2.07;;;;;;;13.56;62.27;99935.78;5062246;28;20495;-71
2021/10/06 08:05:01;;;;;;;7.17;1.90;;;;;;;13.56;62.33;99925.06;5060689;28;20592;-71
2021/10/06 08:07:27;;;;;;;3.90;1.80;;;;;;;13.59;62.21;99939.97;5061492;28;20481;-71
2021/10/06 08:09:54;;;;;;;6.70;1.30;;;;;;;13.61;61.97;99936.13;5062115;28;20453;-70
2021/10/06 08:12:21;;;;;;;4.17;1.77;;;;;;;13.54;61.60;99935.94;5061078;28;20476;-71
2021/10/06 08:14:49;;;;;;;2.53;1.50;;;;;;;13.70;60.95;99945.84;5066296;28;20444;-70
2021/10/06 08:17:16;;;;;;;4.40;1.53;;;;;;;14.07;60.75;99939.09;5067355;28;20480;-71
2021/10/06 08:19:43;;;;;;;3.17;1.13;;;;;;;13.55;61.49;99950.22;5066343;28;20499;-71
2021/10/06 08:22:09;;;;;;;3.97;1.67;;;;;;;13.33;62.28;99944.50;5061318;28;20504;-71
2021/10/06 08:24:36;;;;;;;5.43;1.40;;;;;;;13.38;61.50;99954.72;5081465;28;20467;-70
2021/10/06 08:27:03;;;;;;;3.40;1.30;;;;;;;13.39;61.57;99953.72;5080492;28;20479;-70
2021/10/06 08:29:30;;;;;;;2.70;1.30;;;;;;;13.63;61.27;99966.34;5081813;28;20452;-70
2021/10/06 08:31:58;;;;;;;3.33;1.60;;;;;;;13.40;61.23;99965.31;5080699;28;21046;-70
2021/10/06 08:34:24;;;;;;;2.90;1.80;;;;;;;13.46;61.64;99954.75;5080281;28;20484;-70
2021/10/06 08:36:52;;;;;;;6.43;2.23;;;;;;;13.52;61.58;99959.47;5082008;28;20535;-70
2021/10/06 08:39:19;;;;;;;7.40;1.50;;;;;;;13.52;61.63;99963.97;5081687;28;20451;-71
2021/10/06 08:41:46;;;;;;;5.67;1.60;;;;;;;13.92;60.27;99965.84;5080595;28;20546;-70
2021/10/06 08:44:12;;;;;;;3.20;1.37;;;;;;;14.18;58.58;99967.44;5065236;28;20441;-71
2021/10/06 08:46:39;;;;;;;7.90;1.70;;;;;;;14.24;58.77;99963.25;5060502;28;20504;-71
2021/10/06 08:49:07;;;;;;;4.60;1.50;;;;;;;14.66;58.06;99962.97;5060245;28;20485;-71
2021/10/06 08:51:34;;;;;;;5.60;1.47;;;;;;;14.93;57.24;99970.78;5061353;28;20500;-71
2021/10/06 08:54:02;;;;;;;3.07;1.63;;;;;;;14.14;58.81;99955.38;5061292;28;20457;-70
2021/10/06 08:56:29;;;;;;;6.20;1.50;;;;;;;13.68;59.63;99966.69;5060451;28;20461;-70
2021/10/06 08:58:56;;;;;;;3.57;1.50;;;;;;;13.70;60.56;99977.25;5061496;28;20448;-71
2021/10/06 09:01:24;;;;;;;1.30;1.10;;;;;;;13.34;60.67;99982.94;5059664;28;20477;-71
2021/10/06 09:03:56;;;;;;;3.00;1.10;;;;;;;13.56;59.78;99984.97;5060368;28;20884;-70
2021/10/06 09:06:32;;;;;;;2.00;1.20;;;;;;;13.70;58.92;99988.00;5057939;28;20504;-71
2021/10/06 09:08:58;;;;;;;1.90;1.33;;;;;;;13.87;59.21;99996.88;5060788;28;21028;-71
2021/10/06 09:11:32;;;;;;;5.10;1.60;;;;;;;13.56;60.31;99989.50;5054807;28;20508;-69
2021/10/06 09:14:02;;;;;;;1.60;1.30;;;;;;;13.43;60.11;99991.84;5056659;28;20516;-70
2021/10/06 09:16:28;;;;;;;2.30;1.37;;;;;;;13.46;59.43;100000.41;5069790;28;20503;-71
2021/10/06 09:18:55;;;;;;;2.00;1.20;;;;;;;13.55;59.39;100003.94;5059150;28;20489;-69
2021/10/06 09:21:22;;;;;;;2.93;1.80;;;;;;;13.63;60.04;100003.94;5059662;28;20504;-70
2021/10/06 09:23:50;;;;;;;2.57;1.63;;;;;;;13.81;60.20;100014.53;5061803;28;20436;-71
2021/10/06 09:26:17;;;;;;;1.70;1.50;;;;;;;13.60;61.18;100022.25;5059863;28;20508;-71
2021/10/06 09:28:47;;;;;;;4.10;1.63;;;;;;;12.91;62.79;100025.88;5060341;28;20473;-70
2021/10/06 09:31:15;;;;;;;5.80;1.73;;;;;;;13.12;64.65;100043.41;5060310;28;20472;-71
2021/10/06 09:33:43;;;;;;;3.23;1.47;;;;;;;13.05;64.73;100037.81;5060742;28;20463;-71
2021/10/06 09:36:12;;;;;;;5.40;1.50;;;;;;;12.94;65.02;100046.19;5060422;28;20547;-71
2021/10/06 09:38:41;;;;;;;4.47;1.70;;;;;;;13.68;64.64;100049.09;5060548;28;20485;-70
2021/10/06 09:41:32;;;;;;;4.47;1.47;;;;;;;14.22;64.05;100048.66;5059438;28;20508;-72
2021/10/06 09:44:01;;;;;;;1.90;1.33;;;;;;;13.61;62.31;100048.09;5061062;28;20494;-71
2021/10/06 09:46:34;;;;;;;2.60;1.20;;;;;;;13.79;62.52;100048.78;5059645;28;20527;-70
2021/10/06 09:49:01;;;;;;;3.10;1.30;;;;;;;13.35;61.91;100049.88;5059752;28;20527;-71
2021/10/06 09:51:27;;;;;;;1.77;1.03;;;;;;;14.03;60.96;100045.28;5060798;28;20471;-71
2021/10/06 09:53:54;;;;;;;3.43;1.30;;;;;;;14.50;60.25;100039.19;5061048;28;20464;-71
2021/10/06 09:56:21;;;;;;;1.73;1.27;;;;;;;14.94;58.20;100045.97;5059168;28;20469;-69
2021/10/06 09:59:00;;;;;;;4.10;1.20;;;;;;;15.70;57.43;100042.72;5060345;28;20960;-72
2021/10/06 10:01:28;;;;;;;1.60;1.10;;;;;;;15.45;55.46;100048.28;5059013;28;20481;-72
2021/10/06 10:03:55;;;;;;;3.03;0.90;;;;;;;16.06;55.65;100042.13;5060247;28;20452;-70
2021/10/06 10:06:22;;;;;;;3.13;1.00;;;;;;;15.61;55.21;100052.72;5060120;28;20546;-71
2021/10/06 10:08:49;;;;;;;1.70;0.80;;;;;;;14.85;57.25;100055.09;5060617;28;20583;-71
2021/10/06 10:11:15;;;;;;;2.20;1.13;;;;;;;15.13;57.10;100055.47;5069896;28;20631;-71
2021/10/06 10:13:42;;;;;;;2.50;0.90;;;;;;;15.06;55.43;100060.72;5082057;28;20451;-71
2021/10/06 10:16:11;;;;;;;2.60;1.03;;;;;;;15.32;56.09;100054.22;5083460;28;20499;-71
2021/10/06 10:18:37;;;;;;;2.57;1.30;;;;;;;14.36;57.56;100049.81;5069918;28;20468;-70
2021/10/06 10:21:04;;;;;;;1.27;1.00;;;;;;;13.84;59.04;100065.25;5063960;28;20488;-70
2021/10/06 10:23:31;;;;;;;2.07;0.90;;;;;;;13.69;59.31;100061.53;5064562;28;20457;-71
2021/10/06 10:25:58;;;;;;;3.30;1.37;;;;;;;13.50;60.96;100070.72;5062671;28;20511;-70
2021/10/06 10:28:28;;;;;;;2.63;1.13;;;;;;;13.45;60.34;100059.63;5064481;28;20560;-70
2021/10/06 10:31:00;;;;;;;5.87;1.30;;;;;;;13.71;60.15;100081.88;5062707;28;20510;-70
2021/10/06 10:33:40;;;;;;;1.73;1.13;;;;;;;13.96;59.42;100083.72;5063480;28;20943;-69
2021/10/06 10:36:54;;;;;;;5.13;1.20;;;;;;;13.66;60.53;100081.53;5063262;28;20508;-70
2021/10/06 10:39:57;;;;;;;3.50;1.63;;;;;;;13.78;60.17;100086.56;5019878;28;20498;-70
2021/10/06 10:42:56;;;;;;;3.07;1.40;;;;;;;13.31;61.38;100099.53;5020917;28;20478;-70
2021/10/06 10:45:36;;;;;;;2.33;1.40;;;;;;;13.35;62.42;100098.22;5020569;28;20455;-70
2021/10/06 10:48:03;;;;;;;2.07;1.17;;;;;;;13.06;64.41;100095.88;5020287;28;20478;-70
2021/10/06 10:50:54;;;;;;;3.53;1.10;;;;;;;13.11;63.90;100092.72;5021012;28;21163;-70
2021/10/06 10:53:22;;;;;;;5.10;1.93;;;;;;;13.33;64.07;100089.50;5013293;28;20497;-70
2021/10/06 10:55:52;;;;;;;4.33;1.43;;;;;;;13.65;61.87;100098.66;5020118;28;20490;-71
2021/10/06 10:58:29;;;;;;;3.73;1.20;;;;;;;13.95;61.82;100090.97;5020796;28;20447;-71
2021/10/06 11:00:56;;;;;;;1.53;1.03;;;;;;;13.46;63.04;100094.38;5018177;28;20474;-70
2021/10/06 11:03:23;;;;;;;2.30;1.57;;;;;;;13.39;63.53;100106.78;5020945;28;20458;-70
2021/10/06 11:05:52;;;;;;;3.20;1.20;;;;;;;13.88;62.09;100087.25;5020453;28;20506;-70
2021/10/06 11:08:26;;;;;;;3.40;1.73;;;;;;;13.50;63.68;100103.78;5019778;28;20493;-70
2021/10/06 11:11:27;;;;;;;1.67;1.10;;;;;;;13.77;64.20;100109.09;5050977;28;20469;-70
2021/10/06 11:13:54;;;;;;;1.60;1.30;;;;;;;13.54;64.50;100104.31;5063795;28;20459;-70
2021/10/06 11:16:55;;;;;;;3.50;1.30;;;;;;;13.45;64.44;100116.88;5060761;28;20500;-70
2021/10/06 11:19:40;;;;;;;1.87;1.00;;;;;;;13.81;64.93;100113.94;5079215;28;20478;-70
2021/10/06 11:22:39;;;;;;;3.10;1.20;;;;;;;13.63;65.29;100114.09;5083419;28;20523;-70
2021/10/06 11:25:08;;;;;;;2.20;1.40;;;;;;;13.40;65.08;100123.72;5082231;28;20432;-69
2021/10/06 11:27:45;;;;;;;2.73;1.30;;;;;;;13.04;66.48;100115.81;5079771;28;20512;-70
2021/10/06 11:30:13;;;;;;;5.70;2.40;;;;;;;13.33;65.32;100121.72;5078524;28;20452;-69
2021/10/06 11:32:45;;;;;;;3.30;1.20;;;;;;;13.15;65.13;100115.56;5081957;28;20475;-71
2021/10/06 11:35:11;;;;;;;2.70;1.50;;;;;;;13.05;65.63;100114.84;5081846;28;20432;-70
2021/10/06 11:37:38;;;;;;;1.60;1.47;;;;;;;13.13;65.90;100118.41;5079963;28;20495;-70